Hovedside
METAR-TAF:

METAR-TAF

Lufthavner :

San Pedro Sula, Honduras

breddegrad: 15-27N, lengdegrad: 087-56W, høyde over havet: 31 m

Gjeldene værobservasjon

Denne rapporten ble laget for 33 minutter siden, klokken 04:00 UTC
Vind 8 kt fra Nord-nordøst
Temperatur 28°C
Luftfuktighet 79%
Trykk 1013 hPa
Sikt 10 km eller mer
Få skyer i en høyde av 2600 ft

METAR: MHLM 200400Z 02008KT 9999 FEW026 28/24 Q1013 A2992 NOSIG

Tid: 22:33 (04:33 UTC)

Varsel

Denne rapporten ble laget for 5 timer og 33 minutter siden, klokken 23:00 UTC
Varsel gyldig fra 20. klokken 00 UTC til 20. klokken 24 UTC
Vind 12 kt fra Nord-nordøst
Sikt 10 km eller mer
Få skyer i en høyde av 3000 ft
Blir
fra 20. klokken 02 UTC til 20. klokken 04 UTC
Vind 4 kt fra skiftende retning
Blir
fra 20. klokken 17 UTC til 20. klokken 19 UTC
Vind 14 kt fra Nord-nordøst

TAF: MHLM 192300Z 2000/2024 02012KT 9999 FEW030 TX36/2021Z TN23/2012Z BECMG 2002/2004 VRB04KT BECMG 2017/2019 02014KT

Værobservasjoner og værvarsel for over 4000 flyplasser (METAR- og TAF-rapporter).

Tilgjengelige stasjoner er representert av de røde og gule prikkene på kartet.

Hold musepekeren over prikken for å se navnet på stasjonen.

Klikk så for å se værobservasjoner og -varsler.

For å forandre kartet kan du klikke på den grønne knappen med svart kryss for å zoome inn, på den grønne knappen med strek for å zoome ut, eller på de grønne pilene for å se tilstøtende kart.


METAR-TAF: